Latest Weather Observations for Cooktown

IDQ60801

Issued at 2:32 am EST Monday 25 May 2015 (issued every 30 minutes, with the page automatically refreshed every 10 minutes)

About weather observations | Map of weather stations | Latest weather observations for QLD | Other Formats
Station Details ID: 031209 Name: COOKTOWN AIRPORT Lat: -15.45 Lon: 145.19 Height: 4.8 m
Data from the previous 72 hours. | See also: Recent months at Cooktown
Date/Time
EST
Temp
°C
App
Temp
°C
Dew
Point
Rel
Hum
%
Delta-T
°C
Wind Press
QNH
hPa
Press
MSL
hPa
Rain
since 9 am
mm
Dir
 
Spd
km/h
Gust
km/h
Spd
kts
Gust
kts
25/02:30am 24.7 23.6 19.4 72 3.4 SE 24 33 13 18 1017.7 - 0.0
25/02:00am 24.9 25.0 20.4 76 2.9 SE 20 32 11 17 1017.8 - 0.0
25/01:30am 25.0 24.8 19.7 72 3.4 ESE 20 32 11 17 1018.0 - 0.0
25/01:03am 25.0 24.7 19.6 72 3.5 ESE 20 32 11 17 1018.1 - 0.0
25/01:00am 24.9 24.9 19.8 73 3.3 SE 19 30 10 16 1018.1 - 0.0
25/12:44am 24.4 25.8 21.0 81 2.2 SE 15 24 8 13 1018.3 - 0.0
25/12:30am 24.5 25.5 21.0 81 2.3 SE 17 24 9 13 1018.5 - 0.0
25/12:00am 24.8 25.2 19.8 74 3.2 ESE 17 28 9 15 1018.7 1018.7 0.0
 
Date/Time
EST
Temp
°C
App
Temp
°C
Dew
Point
Rel
Hum
%
Delta-T
°C
Wind Press
QNH
hPa
Press
MSL
hPa
Rain
since 9 am
mm
Dir
 
Spd
km/h
Gust
km/h
Spd
kts
Gust
kts
24/11:43pm 24.3 25.2 20.8 81 2.3 SE 17 26 9 14 1018.7 - 0.0
24/11:30pm 24.1 25.5 21.0 83 2.0 SE 15 20 8 11 1018.7 - 0.0
24/11:09pm 24.2 25.2 21.0 82 2.1 SE 17 24 9 13 1018.8 - 0.0
24/11:04pm 24.1 25.0 20.9 82 2.1 SE 17 30 9 16 1018.9 - 0.0
24/11:00pm 24.2 25.1 20.8 81 2.2 SE 17 30 9 16 1018.9 - 0.0
24/10:30pm 24.2 24.4 20.5 80 2.4 SE 20 33 11 18 1018.8 - 0.0
24/10:13pm 24.1 24.8 20.4 80 2.4 SE 17 28 9 15 1018.9 - 0.0
24/10:00pm 24.3 24.5 20.1 77 2.7 SE 19 32 10 17 1018.9 - 0.0
24/09:30pm 24.3 24.3 20.1 77 2.7 SE 20 39 11 21 1018.8 - 0.0
24/09:25pm 24.3 24.4 20.3 78 2.6 SE 20 33 11 18 1018.8 - 0.0
24/09:15pm 24.5 24.6 20.3 77 2.7 SE 20 35 11 19 1018.8 - 0.0
24/09:00pm 24.5 24.2 20.3 77 2.7 SE 22 33 12 18 1018.7 1018.7 0.0
24/08:30pm 24.4 23.9 19.9 76 2.9 SE 22 37 12 20 1018.5 - 0.0
24/08:00pm 24.3 24.7 19.8 76 2.9 SE 17 30 9 16 1018.3 - 0.0
24/07:30pm 24.0 23.9 19.6 76 2.8 SE 19 32 10 17 1018.0 - 0.0
24/07:00pm 24.0 23.7 19.6 76 2.8 SE 20 33 11 18 1017.7 - 0.0
24/06:30pm 24.3 23.8 19.1 73 3.3 SE 20 35 11 19 1017.6 - 0.0
24/06:00pm 24.4 23.6 19.2 73 3.3 SE 22 41 12 22 1017.3 1017.3 0.0
24/05:30pm 24.4 23.5 19.1 72 3.4 SE 22 39 12 21 1017.0 - 0.0
24/05:00pm 24.5 23.7 19.2 72 3.4 SE 22 39 12 21 1016.8 - 0.0
24/04:30pm 24.7 23.0 18.9 70 3.7 SE 26 43 14 23 1016.5 - 0.0
24/04:00pm 25.3 23.9 18.9 67 4.1 SE 24 39 13 21 1016.3 - 0.0
24/03:30pm 25.6 24.2 18.7 65 4.4 SE 24 39 13 21 1016.3 - 0.0
24/03:00pm 25.5 23.9 18.4 65 4.5 SE 24 37 13 20 1016.1 1016.1 0.0
24/02:30pm 25.3 23.6 18.0 64 4.6 SE 24 43 13 23 1016.1 - 0.0
24/02:00pm 25.7 24.5 18.3 63 4.7 SE 22 33 12 18 1016.2 - 0.0
24/01:30pm 26.0 23.6 18.3 62 4.9 SSE 28 43 15 23 1016.4 - 0.0
24/01:00pm 26.2 23.6 17.8 60 5.3 ESE 28 44 15 24 1016.9 - 0.0
24/12:30pm 25.9 23.1 17.2 58 5.4 ESE 28 41 15 22 1017.3 - 0.0
24/12:04pm 26.1 23.1 17.8 60 5.2 SE 30 48 16 26 1017.7 - 0.0
24/12:00pm 25.5 21.9 17.3 60 5.1 SE 32 48 17 26 1017.8 1017.9 0.0
24/11:56am 25.7 22.7 17.7 61 5.0 SE 30 48 16 26 1017.9 - 0.0
24/11:30am 25.5 23.7 17.8 62 4.8 SE 24 41 13 22 1018.3 - 0.0
24/11:09am 25.2 22.3 17.1 60 5.0 SE 28 46 15 25 1018.4 - 0.0
24/11:00am 24.9 22.0 17.1 62 4.8 SE 28 44 15 24 1018.6 - 0.0
24/10:30am 25.6 24.1 17.6 61 5.0 SE 22 37 12 20 1018.8 - 0.0
24/10:00am 24.0 22.0 16.5 63 4.6 SE 22 37 12 20 1018.8 - 0.0
24/09:30am 23.7 22.3 16.9 65 4.2 SE 20 32 11 17 1018.8 - 0.0
24/09:00am 24.3 22.8 16.3 61 4.9 SE 19 37 10 20 1018.6 1018.6 0.0
24/08:30am 23.6 22.0 16.6 65 4.3 SE 20 30 11 16 1018.4 - 0.0
24/08:00am 22.4 20.9 16.3 68 3.7 SE 19 30 10 16 1018.1 - 0.0
24/07:30am 22.0 20.8 16.2 69 3.5 SE 17 30 9 16 1017.9 - 0.0
24/07:00am 21.9 21.0 15.9 68 3.6 SE 15 32 8 17 1017.6 - 0.0
24/06:30am 21.5 20.7 16.0 71 3.3 SE 15 22 8 12 1017.2 - 0.0
24/06:00am 21.7 20.7 15.5 68 3.7 SSE 15 26 8 14 1017.0 1017.0 0.0
24/05:30am 21.6 20.6 15.6 68 3.6 SE 15 24 8 13 1016.9 - 0.0
24/05:00am 21.5 20.4 15.4 68 3.6 SSE 15 22 8 12 1016.7 - 0.0
24/04:30am 21.3 20.8 15.8 71 3.3 SE 13 19 7 10 1016.6 - 0.0
24/04:00am 21.8 20.7 15.4 67 3.8 SE 15 24 8 13 1016.8 - 0.0
24/03:30am 21.9 20.5 15.5 67 3.8 SE 17 28 9 15 1016.5 - 0.0
24/03:00am 22.0 21.0 15.5 66 3.9 SE 15 24 8 13 1016.6 1016.6 0.0
24/02:30am 22.7 20.9 14.5 60 4.8 SE 17 32 9 17 1016.7 - 0.0
24/02:00am 22.7 19.5 14.3 59 4.9 ESE 24 44 13 24 1016.8 - 0.0
24/01:30am 22.6 20.1 14.2 59 4.9 SE 20 35 11 19 1016.9 - 0.0
24/01:00am 22.5 20.4 14.7 61 4.6 SE 19 32 10 17 1017.0 - 0.0
24/12:30am 22.9 20.4 15.2 62 4.6 SE 22 35 12 19 1017.1 - 0.0
24/12:00am 22.8 20.2 16.0 65 4.1 SE 24 35 13 19 1017.2 1017.2 0.0
 
Date/Time
EST
Temp
°C
App
Temp
°C
Dew
Point
Rel
Hum
%
Delta-T
°C
Wind Press
QNH
hPa
Press
MSL
hPa
Rain
since 9 am
mm
Dir
 
Spd
km/h
Gust
km/h
Spd
kts
Gust
kts
23/11:30pm 22.9 21.1 15.9 64 4.2 SE 20 32 11 17 1017.3 - 0.0
23/11:00pm 23.0 21.1 15.7 63 4.4 SE 20 39 11 21 1017.4 - 0.0
23/10:30pm 23.3 20.2 15.5 61 4.7 SE 26 41 14 22 1017.6 - 0.0
23/10:00pm 23.3 20.7 16.0 63 4.4 ESE 24 37 13 20 1017.8 - 0.0
23/09:30pm 23.2 21.1 16.3 65 4.2 ESE 22 35 12 19 1017.9 - 0.0
23/09:00pm 23.4 20.4 16.9 67 4.0 ESE 28 43 15 23 1017.8 1017.8 0.0
23/08:39pm 23.4 20.5 17.1 67 3.9 SE 28 48 15 26 1017.8 - 0.0
23/08:30pm 23.1 21.1 17.3 70 3.6 SE 24 39 13 21 1017.8 - 0.0
23/08:00pm 23.4 21.1 17.6 70 3.6 SE 26 43 14 23 1017.5 - 0.0
23/07:30pm 23.4 21.6 17.8 71 3.5 SE 24 41 13 22 1017.2 - 0.0
23/07:00pm 23.3 21.6 18.2 73 3.2 SE 24 35 13 19 1017.0 - 0.0
23/06:30pm 23.2 22.0 18.3 74 3.1 SE 22 35 12 19 1016.6 - 0.0
23/06:00pm 23.4 22.2 18.3 73 3.2 SE 22 37 12 20 1016.3 1016.3 0.0
23/05:30pm 23.9 22.2 18.0 69 3.7 SE 24 43 13 23 1016.1 - 0.0
23/05:00pm 24.2 22.1 18.1 68 3.8 SE 26 35 14 19 1015.9 - 0.0
23/04:30pm 24.6 22.4 17.9 66 4.2 SE 26 39 14 21 1015.6 - 0.0
23/04:01pm 25.0 22.3 17.6 63 4.6 SE 28 50 15 27 1015.4 - 0.0
23/04:00pm 25.0 22.8 17.8 64 4.5 SE 26 43 14 23 1015.4 - 0.0
23/03:30pm 26.0 24.9 18.6 63 4.7 SE 22 39 12 21 1015.1 - 0.0
23/03:00pm 25.5 22.5 17.7 62 4.9 SSE 30 48 16 26 1014.9 1015.0 0.0
23/02:55pm 25.7 22.7 17.7 61 5.0 SE 30 48 16 26 1015.0 - 0.0
23/02:30pm 25.8 22.8 17.7 61 5.1 SSE 30 44 16 24 1015.1 - 0.0
23/02:16pm 25.8 23.0 17.3 59 5.3 SE 28 46 15 25 1015.2 - 0.0
23/02:00pm 25.8 22.9 17.1 58 5.4 SE 28 41 15 22 1015.3 - 0.0
23/01:30pm 26.1 22.8 16.9 57 5.7 SE 30 44 16 24 1015.6 - 0.0
23/01:00pm 26.0 23.3 16.6 56 5.8 SE 26 43 14 23 1016.0 - 0.0
23/12:33pm 26.0 22.8 16.4 55 5.9 SE 28 46 15 25 1016.4 - 0.0
23/12:30pm 26.0 23.3 16.6 56 5.8 SE 26 46 14 25 1016.4 - 0.0
23/12:00pm 26.6 24.4 16.9 55 6.0 SE 24 39 13 21 1016.7 1016.6 0.0
23/11:30am 26.0 22.8 16.2 54 6.0 SE 28 48 15 26 1016.8 - 0.0
23/11:04am 26.1 22.7 16.7 56 5.8 SE 30 48 16 26 1017.0 - 0.0
23/11:00am 25.9 21.9 16.3 55 5.9 SE 32 46 17 25 1017.0 - 0.0
23/10:35am 25.9 22.6 16.1 54 6.0 SE 28 46 15 25 1017.2 - 0.0
23/10:30am 26.2 23.8 16.5 55 6.0 SE 24 39 13 21 1017.2 - 0.0
23/10:00am 26.1 24.3 16.9 57 5.7 SE 22 33 12 18 1017.4 - 0.0
23/09:30am 25.7 22.6 15.6 53 6.1 SE 26 41 14 22 1017.6 - 0.0
23/09:00am 25.6 23.0 15.9 55 5.9 SE 24 41 13 22 1017.4 1017.5 0.0
23/08:30am 25.3 24.0 16.9 59 5.2 SE 19 28 10 15 1017.2 - 0.0
23/08:00am 24.8 23.9 16.9 61 4.9 SE 17 32 9 17 1016.8 - 0.0
23/07:30am 24.4 23.9 16.8 62 4.7 SE 15 22 8 12 1016.7 - 0.0
23/07:00am 24.0 23.1 16.8 64 4.4 SE 17 30 9 16 1016.6 - 0.0
23/06:30am 23.8 23.6 17.7 68 3.8 SE 15 24 8 13 1016.1 - 0.0
23/06:00am 24.2 24.4 18.5 70 3.6 SE 15 24 8 13 1015.8 1015.8 0.0
23/05:30am 24.2 25.6 19.5 75 3.0 SE 11 20 6 11 1015.4 - 0.0
23/05:00am 24.1 25.2 19.7 76 2.8 SE 13 20 7 11 1015.2 - 0.0
23/04:30am 23.9 25.3 19.5 76 2.8 ESE 11 19 6 10 1015.0 - 0.0
23/04:00am 24.1 25.1 19.4 75 3.0 SE 13 17 7 9 1015.1 - 0.0
23/03:30am 23.8 25.1 19.4 76 2.8 SE 11 15 6 8 1015.1 - 0.0
23/03:00am 23.7 24.9 19.1 75 2.9 SE 11 17 6 9 1014.9 1014.9 0.0
23/02:30am 24.0 24.5 18.4 71 3.5 SE 13 19 7 10 1015.0 - 0.0
23/02:00am 23.9 24.0 18.3 71 3.5 SE 15 24 8 13 1015.3 - 0.0
23/01:30am 24.0 24.5 18.4 71 3.5 SE 13 19 7 10 1015.5 - 0.0
23/01:00am 24.0 24.4 18.1 69 3.7 SE 13 20 7 11 1015.8 - 0.0
23/12:30am 24.3 24.4 18.3 69 3.8 SE 15 20 8 11 1016.1 - 0.0
23/12:00am 24.4 25.0 18.7 70 3.6 ESE 13 24 7 13 1016.2 1016.3 0.0
 
Date/Time
EST
Temp
°C
App
Temp
°C
Dew
Point
Rel
Hum
%
Delta-T
°C
Wind Press
QNH
hPa
Press
MSL
hPa
Rain
since 9 am
mm
Dir
 
Spd
km/h
Gust
km/h
Spd
kts
Gust
kts
22/11:30pm 24.3 24.7 19.0 72 3.4 ESE 15 20 8 11 1016.4 - 0.0
22/11:00pm 24.2 24.8 19.4 74 3.1 SE 15 28 8 15 1016.5 - 0.0
22/10:30pm 24.0 24.7 19.6 76 2.8 ESE 15 24 8 13 1016.6 - 0.0
22/10:00pm 24.0 24.8 19.8 77 2.7 ESE 15 22 8 12 1016.6 - 0.0
22/09:30pm 24.3 25.1 19.8 76 2.9 ESE 15 24 8 13 1016.4 - 0.0
22/09:00pm 23.8 25.4 19.9 79 2.5 ESE 11 17 6 9 1016.4 1016.4 0.0
22/08:30pm 24.2 25.4 20.0 77 2.7 SE 13 24 7 13 1016.2 - 0.0
22/08:00pm 24.2 25.5 20.2 78 2.6 SE 13 20 7 11 1016.0 - 0.0
22/07:30pm 24.1 25.4 20.2 79 2.5 SE 13 20 7 11 1015.8 - 0.0
22/07:00pm 24.2 26.2 20.7 81 2.3 SE 11 19 6 10 1015.6 - 0.0
22/06:30pm 24.2 25.8 20.7 81 2.3 ESE 13 20 7 11 1015.3 - 0.0
22/06:00pm 24.7 25.5 20.7 78 2.6 SE 17 24 9 13 1015.1 1015.1 0.0
22/05:30pm 25.2 26.1 20.8 76 2.9 SE 17 24 9 13 1014.8 - 0.0
22/05:00pm 25.7 26.0 20.8 74 3.2 ESE 20 32 11 17 1014.7 - 0.0
22/04:50pm 25.9 26.5 21.0 74 3.2 ESE 19 28 10 15 1014.5 - 0.0
22/04:30pm 25.8 26.4 21.1 75 3.1 ESE 19 28 10 15 1014.4 - 0.0
22/04:12pm 26.6 26.9 21.6 74 3.3 ESE 22 32 12 17 1014.2 - 0.0
22/04:00pm 26.8 27.0 21.4 72 3.6 ESE 22 35 12 19 1014.2 - 0.0
22/03:30pm 27.2 27.0 21.2 69 4.0 ESE 24 37 13 20 1014.2 - 0.0
22/03:00pm 27.4 27.8 20.9 67 4.3 ESE 20 30 11 16 1014.1 1014.1 0.0
22/02:30pm 27.1 27.0 20.7 68 4.2 ESE 22 33 12 18 1014.3 - 0.0
22/02:00pm 27.5 26.7 20.8 67 4.4 ESE 26 35 14 19 1014.4 - 0.0
22/01:30pm 27.6 26.1 20.3 64 4.8 ESE 28 37 15 20 1014.8 - 0.0
22/01:00pm 28.1 26.6 20.3 62 5.1 E 28 37 15 20 1015.0 - 0.0
22/12:30pm 28.0 26.8 20.0 61 5.2 ESE 26 32 14 17 1015.3 - 0.0
22/12:00pm 28.1 27.1 19.6 60 5.5 ESE 24 32 13 17 1015.7 1015.7 0.0
22/11:30am 28.2 28.0 20.6 63 5.0 ESE 22 30 12 16 1016.1 - 0.0
22/11:00am 28.1 27.8 19.6 60 5.5 SE 20 28 11 15 1016.5 - 0.0
22/10:30am 27.8 28.4 20.3 63 4.9 SE 17 26 9 14 1016.9 - 0.0
22/10:00am 27.2 28.8 20.8 68 4.2 SE 13 20 7 11 1017.2 - 0.0
22/09:30am 26.5 29.0 21.0 72 3.6 SE 9 15 5 8 1017.3 - 0.0
22/09:00am 25.7 29.8 21.6 78 2.7 W 2 7 1 4 1017.3 1017.3 0.0
22/08:30am 23.9 28.4 21.6 87 1.5 CALM 0 0 0 0 1017.0 - 0.0
22/08:00am 22.1 26.5 21.3 95 0.5 CALM 0 0 0 0 1016.7 - 0.0
22/07:30am 21.4 25.5 20.8 96 0.4 CALM 0 0 0 0 1016.6 - 0.0
22/07:00am 20.5 24.2 20.0 97 0.3 CALM 0 2 0 1 1016.1 - 0.0
22/06:30am 19.8 22.1 19.5 98 0.2 W 6 7 3 4 1015.9 - 0.0
22/06:00am 20.8 24.3 20.3 97 0.3 WNW 2 6 1 3 1015.6 1015.6 0.0
22/05:54am 20.8 23.9 20.3 97 0.3 WNW 4 7 2 4 1015.6 - 0.0
22/05:30am 20.6 24.4 20.1 97 0.3 CALM 0 0 0 0 1015.5 - 0.0
22/05:15am 20.5 24.2 20.0 97 0.3 CALM 0 0 0 0 1015.2 - 0.0
22/05:00am 20.9 23.7 20.4 97 0.3 NW 6 7 3 4 1015.1 - 0.0
22/04:30am 21.3 25.4 20.7 96 0.4 CALM 0 0 0 0 1014.9 - 0.0
22/04:00am 21.8 25.2 21.0 95 0.5 NW 4 6 2 3 1014.8 - 0.0
22/03:30am 22.0 26.3 21.1 95 0.6 CALM 0 0 0 0 1014.7 - 0.0
22/03:00am 23.3 26.7 21.6 90 1.1 SE 6 7 3 4 1014.7 1014.7 0.0

Other Formats:

Comma delimited format used in spreadsheet applications
http://www.bom.gov.au/fwo/IDQ60801/IDQ60801.95283.axf

JavaScript Object Notation format (JSON) in row-major order
http://www.bom.gov.au/fwo/IDQ60801/IDQ60801.95283.json